Back to Top

Language: 

My Weather Underground Personal Weather Station Historical Data with Graphs...

Delerius Weather Station Historical Data
Daily Summary for April 19, 2017 Units:  Metric    English   Both
« Previous Day
Next Day »
Daily Weekly Monthly Yearly Custom
  High: Low: Average:
Temperature: 12.9 °C 4.4 °C 9 °C
Dew Point: 5.3 °C 2.1 °C 3.4 °C
Humidity: 88 % 49 % 69 %
Wind Speed: 12.9 km/h 0 km/h 4.7 km/h
Wind Gust: 22.5 km/h - -
Wind:- - SW
Pressure: 1037.1 hPa 1034.4 hPa -
Precipitation: 0 mm    
Historical Graphs
 
 
Tabular Data for April 19, 2017
Time Temperature Dew Point Pressure Wind Wind Speed Wind Gust Humidity Rainfall Rate (Hourly) solar Conditions
00:04 6.3 °C 3.1 °C 1036.1 hPa SE 3.2 km/h 8 km/h 80 % 0 mm 0 W/m2
00:09 6.3 °C 3.1 °C 1036.1 hPa SE 1.6 km/h 8 km/h 80 % 0 mm 0 W/m2
00:14 6.3 °C 3.1 °C 1036.1 hPa SE 1.6 km/h 4.8 km/h 80 % 0 mm 0 W/m2
00:19 6.3 °C 3.1 °C 1036.1 hPa SE 1.6 km/h 4.8 km/h 80 % 0 mm 0 W/m2
00:24 6.3 °C 3.3 °C 1036.1 hPa Calm   4.8 km/h 81 % 0 mm 0 W/m2
00:29 6.3 °C 3.3 °C 1036.1 hPa Calm   1.6 km/h 81 % 0 mm 0 W/m2
00:35 6.3 °C 3.3 °C 1036.5 hPa Calm   3.2 km/h 81 % 0 mm 0 W/m2
00:40 6.3 °C 3.3 °C 1036.5 hPa Calm   3.2 km/h 81 % 0 mm 0 W/m2
00:45 6.3 °C 3.3 °C 1036.5 hPa Calm   1.6 km/h 81 % 0 mm 0 W/m2
00:50 6.2 °C 3.2 °C 1036.5 hPa Calm   3.2 km/h 81 % 0 mm 0 W/m2
00:55 6.1 °C 3.1 °C 1036.5 hPa Calm   3.2 km/h 81 % 0 mm 0 W/m2
01:00 6.1 °C 3.3 °C 1036.5 hPa SE 1.6 km/h 8 km/h 82 % 0 mm 0 W/m2
01:05 6.1 °C 3.3 °C 1036.5 hPa Calm   8 km/h 82 % 0 mm 0 W/m2
01:10 6.1 °C 3.3 °C 1036.5 hPa Calm   4.8 km/h 82 % 0 mm 0 W/m2
01:15 6 °C 3.2 °C 1036.5 hPa SE 1.6 km/h 6.4 km/h 82 % 0 mm 0 W/m2
01:20 6 °C 3.2 °C 1036.5 hPa SE 1.6 km/h 6.4 km/h 82 % 0 mm 0 W/m2
01:25 6 °C 3.2 °C 1036.5 hPa SE 1.6 km/h 6.4 km/h 82 % 0 mm 0 W/m2
01:30 6 °C 3.2 °C 1036.5 hPa SE 1.6 km/h 6.4 km/h 82 % 0 mm 0 W/m2
01:35 6 °C 3.2 °C 1036.5 hPa Calm   3.2 km/h 82 % 0 mm 0 W/m2
01:40 6 °C 3.2 °C 1036.5 hPa Calm     82 % 0 mm 0 W/m2
01:45 6 °C 3.3 °C 1036.5 hPa Calm     83 % 0 mm 0 W/m2
01:50 6 °C 3.2 °C 1036.5 hPa Calm   3.2 km/h 82 % 0 mm 0 W/m2
01:55 5.9 °C 3.1 °C 1036.5 hPa Calm   4.8 km/h 82 % 0 mm 0 W/m2
02:00 5.9 °C 3.2 °C 1036.1 hPa SE 1.6 km/h 8 km/h 83 % 0 mm 0 W/m2
02:05 5.9 °C 3.2 °C 1036.1 hPa SE 1.6 km/h 8 km/h 83 % 0 mm 0 W/m2
02:10 5.8 °C 3.1 °C 1036.1 hPa SE 1.6 km/h 6.4 km/h 83 % 0 mm 0 W/m2
02:15 5.8 °C 3.1 °C 1036.1 hPa SE 1.6 km/h 6.4 km/h 83 % 0 mm 0 W/m2
02:20 5.7 °C 3.1 °C 1036.1 hPa SE 1.6 km/h 6.4 km/h 83 % 0 mm 0 W/m2
02:25 5.7 °C 3.1 °C 1036.1 hPa SE 1.6 km/h 8 km/h 83 % 0 mm 0 W/m2
02:30 5.6 °C 2.9 °C 1036.1 hPa SSE 1.6 km/h 8 km/h 83 % 0 mm 0 W/m2
02:35 5.5 °C 2.8 °C 1036.1 hPa SSE 1.6 km/h 3.2 km/h 83 % 0 mm 0 W/m2
02:40 5.4 °C 2.7 °C 1036.1 hPa SSE 1.6 km/h 3.2 km/h 83 % 0 mm 0 W/m2
02:45 5.2 °C 2.6 °C 1036.1 hPa Calm   3.2 km/h 83 % 0 mm 0 W/m2
02:50 5 °C 2.3 °C 1036.1 hPa Calm   1.6 km/h 83 % 0 mm 0 W/m2
02:55 4.8 °C 2.3 °C 1036.1 hPa Calm     84 % 0 mm 0 W/m2
02:58 4.8 °C 2.3 °C 1036.1 hPa Calm     84 % 0 mm 0 W/m2
03:03 4.6 °C 2.1 °C 1036.1 hPa Calm     84 % 0 mm 0 W/m2
03:08 4.5 °C 2.2 °C 1036.1 hPa Calm     85 % 0 mm 0 W/m2
03:13 4.4 °C 2.1 °C 1035.8 hPa Calm     85 % 0 mm 0 W/m2
03:18 4.4 °C 2.3 °C 1035.8 hPa Calm     86 % 0 mm 0 W/m2
03:23 4.4 °C 2.4 °C 1035.8 hPa Calm   3.2 km/h 87 % 0 mm 0 W/m2
03:28 4.4 °C 2.4 °C 1035.8 hPa Calm   3.2 km/h 87 % 0 mm 0 W/m2
03:33 4.4 °C 2.4 °C 1035.8 hPa Calm     87 % 0 mm 0 W/m2
03:38 4.4 °C 2.4 °C 1035.8 hPa Calm     87 % 0 mm 0 W/m2
03:43 4.4 °C 2.6 °C 1035.8 hPa Calm     88 % 0 mm 0 W/m2
03:48 4.5 °C 2.7 °C 1035.8 hPa Calm   6.4 km/h 88 % 0 mm 0 W/m2
03:53 4.6 °C 2.8 °C 1035.8 hPa Calm   6.4 km/h 88 % 0 mm 0 W/m2
03:58 4.6 °C 2.8 °C 1035.8 hPa Calm   1.6 km/h 88 % 0 mm 0 W/m2
04:03 4.6 °C 2.6 °C 1035.8 hPa Calm     87 % 0 mm 0 W/m2
04:08 4.6 °C 2.8 °C 1035.8 hPa Calm   1.6 km/h 88 % 0 mm 0 W/m2
04:13 4.7 °C 2.9 °C 1036.1 hPa Calm   1.6 km/h 88 % 0 mm 0 W/m2
04:18 4.7 °C 2.7 °C 1036.1 hPa Calm     87 % 0 mm 0 W/m2
04:23 4.7 °C 2.7 °C 1036.1 hPa Calm     87 % 0 mm 0 W/m2
04:24 4.7 °C 2.7 °C 1036.1 hPa Calm     87 % 0 mm 0 W/m2
04:29 4.7 °C 2.7 °C 1036.1 hPa Calm   1.6 km/h 87 % 0 mm 0 W/m2
04:34 4.7 °C 2.7 °C 1036.1 hPa Calm   1.6 km/h 87 % 0 mm 0 W/m2
04:39 4.7 °C 2.9 °C 1036.1 hPa Calm   3.2 km/h 88 % 0 mm 0 W/m2
04:44 4.7 °C 2.9 °C 1036.1 hPa Calm   6.4 km/h 88 % 0 mm 0 W/m2
04:49 4.8 °C 3 °C 1036.1 hPa SSE 1.6 km/h 6.4 km/h 88 % 0 mm 0 W/m2
04:54 4.8 °C 3 °C 1036.1 hPa SSE 1.6 km/h 6.4 km/h 88 % 0 mm 0 W/m2
04:59 4.9 °C 2.9 °C 1036.1 hPa Calm   6.4 km/h 87 % 0 mm 0 W/m2
05:04 4.9 °C 2.9 °C 1036.1 hPa Calm   4.8 km/h 87 % 0 mm 0 W/m2
05:09 4.9 °C 2.9 °C 1036.1 hPa Calm   4.8 km/h 87 % 0 mm 0 W/m2
05:14 4.9 °C 2.9 °C 1036.1 hPa Calm   1.6 km/h 87 % 0 mm 0 W/m2
05:19 4.9 °C 2.9 °C 1036.1 hPa Calm     87 % 0 mm 0 W/m2
05:24 5 °C 3 °C 1036.1 hPa Calm     87 % 0 mm 0 W/m2
05:29 5 °C 2.8 °C 1036.1 hPa SSE 1.6 km/h 8 km/h 86 % 0 mm 0 W/m2
05:34 5 °C 2.8 °C 1036.1 hPa SSE 1.6 km/h 8 km/h 86 % 0 mm 0 W/m2
05:39 5 °C 2.8 °C 1036.1 hPa SSE 1.6 km/h 8 km/h 86 % 0 mm 0 W/m2
05:44 5 °C 2.8 °C 1036.1 hPa Calm   8 km/h 86 % 0 mm 0 W/m2
05:49 5 °C 2.8 °C 1036.1 hPa Calm   3.2 km/h 86 % 0 mm 0 W/m2
05:50 5 °C 2.8 °C 1036.1 hPa Calm   4.8 km/h 86 % 0 mm 0 W/m2
05:55 5 °C 2.8 °C 1036.1 hPa South 1.6 km/h 6.4 km/h 86 % 0 mm 5 W/m2
06:00 5 °C 2.8 °C 1036.1 hPa SSW 1.6 km/h 9.7 km/h 86 % 0 mm 7 W/m2
06:05 5 °C 2.8 °C 1035.8 hPa SSW 3.2 km/h 9.7 km/h 86 % 0 mm 9 W/m2
06:10 4.9 °C 2.8 °C 1036.1 hPa SSW 1.6 km/h 9.7 km/h 86 % 0 mm 12 W/m2
06:15 4.9 °C 2.8 °C 1036.1 hPa Calm   9.7 km/h 86 % 0 mm 16 W/m2
06:16 4.9 °C 2.8 °C 1036.1 hPa Calm   1.6 km/h 86 % 0 mm 16 W/m2
06:21 4.9 °C 2.8 °C 1036.1 hPa Calm   6.4 km/h 86 % 0 mm 23 W/m2
06:26 4.9 °C 2.6 °C 1036.1 hPa Calm   6.4 km/h 85 % 0 mm 30 W/m2
06:31 4.9 °C 2.6 °C 1036.1 hPa SSW 1.6 km/h 8 km/h 85 % 0 mm 35 W/m2
06:36 5 °C 2.7 °C 1036.1 hPa SSW 1.6 km/h 8 km/h 85 % 0 mm 42 W/m2
06:41 5.1 °C 2.6 °C 1036.1 hPa South 1.6 km/h 8 km/h 84 % 0 mm 47 W/m2
06:46 5.1 °C 2.6 °C 1036.1 hPa South 1.6 km/h 8 km/h 84 % 0 mm 53 W/m2
06:51 5.2 °C 2.7 °C 1036.5 hPa South 1.6 km/h 8 km/h 84 % 0 mm 58 W/m2
06:56 5.3 °C 2.7 °C 1036.5 hPa South 1.6 km/h 8 km/h 83 % 0 mm 72 W/m2
07:01 5.3 °C 2.7 °C 1036.1 hPa South 3.2 km/h 11.3 km/h 83 % 0 mm 86 W/m2
07:06 5.4 °C 2.7 °C 1036.5 hPa South 4.8 km/h 12.9 km/h 83 % 0 mm 98 W/m2
07:11 5.6 °C 2.8 °C 1036.5 hPa South 4.8 km/h 12.9 km/h 82 % 0 mm 156 W/m2
07:16 5.8 °C 2.9 °C 1036.5 hPa South 4.8 km/h 11.3 km/h 82 % 0 mm 153 W/m2
07:21 6 °C 3 °C 1036.5 hPa SSW 4.8 km/h 12.9 km/h 81 % 0 mm 144 W/m2
07:26 6.1 °C 2.9 °C 1036.5 hPa SSW 6.4 km/h 12.9 km/h 80 % 0 mm 156 W/m2
07:31 6.2 °C 3 °C 1036.1 hPa South 6.4 km/h 12.9 km/h 80 % 0 mm 121 W/m2
07:36 6.3 °C 3.1 °C 1036.1 hPa South 8 km/h 14.5 km/h 80 % 0 mm 148 W/m2
07:41 6.4 °C 3.2 °C 1036.1 hPa SSW 9.7 km/h 14.5 km/h 80 % 0 mm 244 W/m2
07:46 6.6 °C 3.2 °C 1036.5 hPa SSW 9.7 km/h 16.1 km/h 79 % 0 mm 185 W/m2
07:51 6.6 °C 3.2 °C 1036.5 hPa SSW 9.7 km/h 16.1 km/h 79 % 0 mm 153 W/m2
07:56 6.7 °C 3.1 °C 1036.5 hPa SSW 9.7 km/h 14.5 km/h 78 % 0 mm 162 W/m2
08:01 6.8 °C 3.2 °C 1036.5 hPa SSW 9.7 km/h 14.5 km/h 78 % 0 mm 162 W/m2
08:06 6.8 °C 3.2 °C 1036.5 hPa SW 8 km/h 14.5 km/h 78 % 0 mm 162 W/m2
08:11 6.9 °C 3.2 °C 1036.1 hPa SSW 9.7 km/h 17.7 km/h 77 % 0 mm 155 W/m2
08:17 7 °C 3.2 °C 1036.5 hPa SSW 9.7 km/h 17.7 km/h 77 % 0 mm 163 W/m2
08:22 7.1 °C 3.2 °C 1036.5 hPa SW 9.7 km/h 17.7 km/h 76 % 0 mm 174 W/m2
08:27 7.1 °C 3.3 °C 1036.5 hPa SSW 9.7 km/h 17.7 km/h 77 % 0 mm 174 W/m2
08:32 7.2 °C 3.2 °C 1036.5 hPa SSW 8 km/h 16.1 km/h 76 % 0 mm 176 W/m2
08:37 7.3 °C 3.3 °C 1036.5 hPa SSW 9.7 km/h 17.7 km/h 76 % 0 mm 183 W/m2
08:42 7.3 °C 3.2 °C 1036.5 hPa SSW 8 km/h 17.7 km/h 75 % 0 mm 185 W/m2
08:47 7.4 °C 3.3 °C 1036.5 hPa SSW 8 km/h 16.1 km/h 75 % 0 mm 204 W/m2
08:52 7.4 °C 3.3 °C 1036.5 hPa SSW 9.7 km/h 17.7 km/h 75 % 0 mm 192 W/m2
08:57 7.5 °C 3.2 °C 1036.5 hPa SSW 11.3 km/h 17.7 km/h 74 % 0 mm 181 W/m2
09:02 7.6 °C 3.3 °C 1036.5 hPa SW 11.3 km/h 17.7 km/h 74 % 0 mm 204 W/m2
09:07 7.6 °C 3.4 °C 1036.5 hPa SW 9.7 km/h 16.1 km/h 75 % 0 mm 202 W/m2
09:12 7.7 °C 3.6 °C 1036.5 hPa SW 9.7 km/h 14.5 km/h 75 % 0 mm 246 W/m2
09:17 7.8 °C 3.4 °C 1036.8 hPa SW 9.7 km/h 16.1 km/h 74 % 0 mm 283 W/m2
09:22 7.9 °C 3.3 °C 1036.8 hPa SSW 9.7 km/h 16.1 km/h 73 % 0 mm 213 W/m2
09:27 8 °C 3.4 °C 1036.8 hPa SSW 8 km/h 16.1 km/h 73 % 0 mm 230 W/m2
09:32 8.1 °C 3.6 °C 1036.5 hPa SSW 8 km/h 16.1 km/h 73 % 0 mm 234 W/m2
09:37 8.2 °C 3.4 °C 1036.8 hPa SSW 9.7 km/h 19.3 km/h 72 % 0 mm 299 W/m2
09:42 8.3 °C 3.3 °C 1036.8 hPa SW 11.3 km/h 19.3 km/h 71 % 0 mm 322 W/m2
09:47 8.4 °C 3.2 °C 1036.8 hPa SW 12.9 km/h 20.9 km/h 70 % 0 mm 301 W/m2
09:52 8.4 °C 3.2 °C 1036.8 hPa SW 12.9 km/h 20.9 km/h 70 % 0 mm 278 W/m2
09:57 8.4 °C 3.2 °C 1036.8 hPa SW 11.3 km/h 17.7 km/h 70 % 0 mm 278 W/m2
10:02 8.6 °C 3.4 °C 1036.8 hPa SW 11.3 km/h 17.7 km/h 70 % 0 mm 285 W/m2
10:07 8.7 °C 3.3 °C 1036.8 hPa SW 11.3 km/h 17.7 km/h 69 % 0 mm 281 W/m2
10:12 8.7 °C 3.6 °C 1036.8 hPa SW 9.7 km/h 17.7 km/h 70 % 0 mm 301 W/m2
10:17 8.8 °C 3.4 °C 1036.8 hPa SW 9.7 km/h 16.1 km/h 69 % 0 mm 353 W/m2
10:23 8.9 °C 3.5 °C 1036.8 hPa SSW 11.3 km/h 16.1 km/h 69 % 0 mm 346 W/m2
10:28 8.9 °C 3.3 °C 1036.8 hPa SSW 9.7 km/h 16.1 km/h 68 % 0 mm 327 W/m2
10:33 9.1 °C 3.5 °C 1037.1 hPa SSW 9.7 km/h 16.1 km/h 68 % 0 mm 302 W/m2
10:38 9.2 °C 3.4 °C 1036.8 hPa SSW 9.7 km/h 16.1 km/h 67 % 0 mm 290 W/m2
10:43 9.3 °C 3.5 °C 1036.8 hPa SSW 8 km/h 14.5 km/h 67 % 0 mm 281 W/m2
10:48 9.4 °C 3.2 °C 1036.8 hPa SSW 8 km/h 14.5 km/h 65 % 0 mm 281 W/m2
10:53 9.4 °C 3.4 °C 1036.8 hPa SSW 8 km/h 14.5 km/h 66 % 0 mm 292 W/m2
10:58 9.6 °C 3.6 °C 1036.8 hPa SSW 6.4 km/h 11.3 km/h 66 % 0 mm 313 W/m2
11:03 9.8 °C 3.5 °C 1036.8 hPa South 4.8 km/h 11.3 km/h 65 % 0 mm 345 W/m2
11:08 9.9 °C 3.8 °C 1036.8 hPa South 4.8 km/h 11.3 km/h 66 % 0 mm 387 W/m2
11:13 10.1 °C 3.8 °C 1036.8 hPa South 6.4 km/h 12.9 km/h 65 % 0 mm 427 W/m2
11:18 10.2 °C 3.7 °C 1036.5 hPa South 8 km/h 12.9 km/h 64 % 0 mm 438 W/m2
11:23 10.4 °C 3.9 °C 1036.5 hPa SSW 8 km/h 16.1 km/h 64 % 0 mm 506 W/m2
11:28 10.6 °C 3.8 °C 1036.5 hPa SSW 8 km/h 16.1 km/h 63 % 0 mm 552 W/m2
11:33 10.7 °C 3.7 °C 1036.5 hPa SSW 8 km/h 17.7 km/h 62 % 0 mm 527 W/m2
11:38 10.7 °C 3.7 °C 1036.5 hPa South 9.7 km/h 17.7 km/h 62 % 0 mm 508 W/m2
11:43 10.9 °C 3.7 °C 1036.5 hPa SSE 9.7 km/h 17.7 km/h 61 % 0 mm 570 W/m2
11:48 11.1 °C 3.6 °C 1036.5 hPa South 11.3 km/h 22.5 km/h 60 % 0 mm 545 W/m2
11:53 11.1 °C 3.6 °C 1036.5 hPa SSW 11.3 km/h 22.5 km/h 60 % 0 mm 557 W/m2
11:58 11.3 °C 3.6 °C 1036.5 hPa SSW 9.7 km/h 19.3 km/h 59 % 0 mm 564 W/m2
12:03 11.5 °C 3.8 °C 1036.1 hPa SSW 8 km/h 16.1 km/h 59 % 0 mm 508 W/m2
12:09 11.7 °C 3.4 °C 1036.1 hPa SW 8 km/h 14.5 km/h 57 % 0 mm 455 W/m2
12:14 11.8 °C 3.8 °C 1036.1 hPa SSW 8 km/h 14.5 km/h 58 % 0 mm 413 W/m2
12:19 11.8 °C 3.6 °C 1036.1 hPa South 6.4 km/h 14.5 km/h 57 % 0 mm 371 W/m2
12:24 11.7 °C 3.2 °C 1036.1 hPa SSW 8 km/h 17.7 km/h 56 % 0 mm 396 W/m2
12:29 11.5 °C 3.3 °C 1036.1 hPa SSW 9.7 km/h 17.7 km/h 57 % 0 mm 403 W/m2
12:34 11.5 °C 3 °C 1036.1 hPa SSW 9.7 km/h 19.3 km/h 56 % 0 mm 388 W/m2
12:39 11.6 °C 3.6 °C 1035.8 hPa SSW 8 km/h 19.3 km/h 58 % 0 mm 383 W/m2
12:44 11.7 °C 3.2 °C 1035.8 hPa SW 8 km/h 16.1 km/h 56 % 0 mm 434 W/m2
12:49 11.8 °C 3.3 °C 1035.8 hPa SW 6.4 km/h 16.1 km/h 56 % 0 mm 373 W/m2
12:54 11.9 °C 3.4 °C 1035.8 hPa SSW 6.4 km/h 14.5 km/h 56 % 0 mm 381 W/m2
12:59 12 °C 3.5 °C 1035.8 hPa SSW 8 km/h 14.5 km/h 56 % 0 mm 272 W/m2
13:04 11.9 °C 3.4 °C 1035.8 hPa SW 8 km/h 17.7 km/h 56 % 0 mm 318 W/m2
13:09 11.9 °C 3.4 °C 1035.8 hPa SSW 8 km/h 17.7 km/h 56 % 0 mm 318 W/m2
13:14 12 °C 3.7 °C 1035.8 hPa South 8 km/h 19.3 km/h 57 % 0 mm 332 W/m2
13:19 12 °C 3.5 °C 1035.8 hPa SSW 9.7 km/h 20.9 km/h 56 % 0 mm 299 W/m2
13:24 12 °C 3.5 °C 1035.8 hPa SSW 9.7 km/h 20.9 km/h 56 % 0 mm 292 W/m2
13:29 12 °C 3.7 °C 1035.8 hPa SSW 9.7 km/h 14.5 km/h 57 % 0 mm 281 W/m2
13:34 12.1 °C 3.6 °C 1035.8 hPa SSW 9.7 km/h 17.7 km/h 56 % 0 mm 265 W/m2
13:39 12.1 °C 3.6 °C 1035.8 hPa SSW 9.7 km/h 17.7 km/h 56 % 0 mm 257 W/m2
13:44 12.1 °C 3.6 °C 1035.8 hPa SSW 8 km/h 17.7 km/h 56 % 0 mm 262 W/m2
13:49 12.2 °C 3.4 °C 1035.8 hPa SW 8 km/h 16.1 km/h 55 % 0 mm 264 W/m2
13:54 12.1 °C 3.6 °C 1035.8 hPa SW 11.3 km/h 16.1 km/h 56 % 0 mm 251 W/m2
13:55 12.1 °C 3.8 °C 1035.4 hPa SW 11.3 km/h 16.1 km/h 57 % 0 mm 251 W/m2
14:00 12.1 °C 3.8 °C 1035.4 hPa SW 11.3 km/h 16.1 km/h 57 % 0 mm 267 W/m2
14:05 12 °C 3.5 °C 1035.4 hPa SW 11.3 km/h 19.3 km/h 56 % 0 mm 287 W/m2
14:10 12.1 °C 3.8 °C 1035.4 hPa SW 11.3 km/h 19.3 km/h 57 % 0 mm 257 W/m2
14:15 12 °C 3.5 °C 1035.4 hPa SW 11.3 km/h 17.7 km/h 56 % 0 mm 264 W/m2
14:20 12.1 °C 3.6 °C 1035.4 hPa SSW 11.3 km/h 17.7 km/h 56 % 0 mm 271 W/m2
14:25 12.2 °C 3.4 °C 1035.4 hPa SSW 9.7 km/h 16.1 km/h 55 % 0 mm 251 W/m2
14:30 12.2 °C 3.4 °C 1035.4 hPa SW 9.7 km/h 14.5 km/h 55 % 0 mm 236 W/m2
14:35 12.2 °C 3.4 °C 1035.4 hPa SW 4.8 km/h 11.3 km/h 55 % 0 mm 279 W/m2
14:40 12.2 °C 3.7 °C 1035.4 hPa SW 3.2 km/h 9.7 km/h 56 % 0 mm 250 W/m2
14:45 12.3 °C 3 °C 1035.4 hPa WSW 4.8 km/h 11.3 km/h 53 % 0 mm 236 W/m2
14:50 12.5 °C 3.4 °C 1035.4 hPa West 4.8 km/h 11.3 km/h 54 % 0 mm 246 W/m2
14:55 12.6 °C 3.6 °C 1035.4 hPa West 6.4 km/h 11.3 km/h 54 % 0 mm 267 W/m2
15:00 12.7 °C 3.1 °C 1035.4 hPa West 6.4 km/h 14.5 km/h 52 % 0 mm 250 W/m2
15:05 12.8 °C 2.9 °C 1035.1 hPa West 8 km/h 14.5 km/h 51 % 0 mm 232 W/m2
15:10 12.8 °C 2.9 °C 1035.1 hPa WNW 8 km/h 12.9 km/h 51 % 0 mm 236 W/m2
15:15 12.9 °C 2.7 °C 1035.1 hPa WNW 8 km/h 14.5 km/h 50 % 0 mm 229 W/m2
15:20 12.9 °C 2.4 °C 1035.1 hPa West 9.7 km/h 14.5 km/h 49 % 0 mm 216 W/m2
15:25 12.8 °C 2.3 °C 1035.1 hPa West 9.7 km/h 20.9 km/h 49 % 0 mm 213 W/m2
15:30 12.8 °C 2.6 °C 1035.1 hPa WNW 11.3 km/h 20.9 km/h 50 % 0 mm 202 W/m2
15:35 12.8 °C 2.6 °C 1035.1 hPa WNW 9.7 km/h 16.1 km/h 50 % 0 mm 213 W/m2
15:40 12.8 °C 2.9 °C 1035.1 hPa WNW 9.7 km/h 17.7 km/h 51 % 0 mm 232 W/m2
15:45 12.8 °C 2.6 °C 1035.1 hPa West 9.7 km/h 17.7 km/h 50 % 0 mm 216 W/m2
15:50 12.7 °C 2.6 °C 1035.1 hPa West 11.3 km/h 17.7 km/h 50 % 0 mm 169 W/m2
15:55 12.6 °C 2.7 °C 1035.1 hPa West 9.7 km/h 16.1 km/h 51 % 0 mm 178 W/m2
16:00 12.6 °C 2.7 °C 1034.8 hPa West 8 km/h 14.5 km/h 51 % 0 mm 199 W/m2
16:05 12.7 °C 3.1 °C 1034.8 hPa West 9.7 km/h 16.1 km/h 52 % 0 mm 216 W/m2
16:10 12.7 °C 3.1 °C 1034.8 hPa West 9.7 km/h 16.1 km/h 52 % 0 mm 232 W/m2
16:15 12.7 °C 3.1 °C 1034.8 hPa West 9.7 km/h 17.7 km/h 52 % 0 mm 234 W/m2
16:20 12.7 °C 2.8 °C 1034.8 hPa West 8 km/h 17.7 km/h 51 % 0 mm 204 W/m2
16:25 12.7 °C 2.6 °C 1034.8 hPa West 8 km/h 17.7 km/h 50 % 0 mm 167 W/m2
16:30 12.7 °C 2.8 °C 1034.8 hPa WNW 9.7 km/h 17.7 km/h 51 % 0 mm 123 W/m2
16:35 12.6 °C 2.4 °C 1034.8 hPa WNW 11.3 km/h 20.9 km/h 50 % 0 mm 113 W/m2
16:40 12.6 °C 2.4 °C 1034.8 hPa WNW 11.3 km/h 20.9 km/h 50 % 0 mm 107 W/m2
16:45 12.4 °C 2.6 °C 1034.8 hPa WNW 11.3 km/h 20.9 km/h 51 % 0 mm 120 W/m2
16:50 12.3 °C 2.4 °C 1034.8 hPa WNW 9.7 km/h 19.3 km/h 51 % 0 mm 135 W/m2
16:55 12.3 °C 2.4 °C 1034.8 hPa WNW 9.7 km/h 16.1 km/h 51 % 0 mm 165 W/m2
17:00 12.2 °C 2.6 °C 1034.8 hPa WNW 8 km/h 14.5 km/h 52 % 0 mm 151 W/m2
17:05 12.2 °C 2.3 °C 1034.8 hPa West 8 km/h 14.5 km/h 51 % 0 mm 127 W/m2
17:10 12.2 °C 2.6 °C 1034.8 hPa West 8 km/h 16.1 km/h 52 % 0 mm 153 W/m2
17:15 12.3 °C 3 °C 1034.8 hPa WNW 6.4 km/h 16.1 km/h 53 % 0 mm 209 W/m2
17:20 12.3 °C 2.4 °C 1034.8 hPa WNW 4.8 km/h 11.3 km/h 51 % 0 mm 223 W/m2
17:25 12.4 °C 2.3 °C 1034.8 hPa WNW 4.8 km/h 11.3 km/h 50 % 0 mm 209 W/m2
17:30 12.4 °C 2.3 °C 1034.8 hPa WNW 4.8 km/h 11.3 km/h 50 % 0 mm 176 W/m2
17:35 12.6 °C 2.4 °C 1034.8 hPa WNW 1.6 km/h 8 km/h 50 % 0 mm 149 W/m2
17:41 12.5 °C 2.3 °C 1034.8 hPa WSW 4.8 km/h 9.7 km/h 50 % 0 mm 146 W/m2
17:46 12.4 °C 2.6 °C 1034.4 hPa SW 6.4 km/h 11.3 km/h 51 % 0 mm 149 W/m2
17:51 12.3 °C 2.4 °C 1034.4 hPa SW 6.4 km/h 12.9 km/h 51 % 0 mm 134 W/m2
17:56 12.3 °C 3 °C 1034.4 hPa SW 4.8 km/h 12.9 km/h 53 % 0 mm 127 W/m2
18:01 12.4 °C 3.1 °C 1034.4 hPa WSW 6.4 km/h 17.7 km/h 53 % 0 mm 144 W/m2
18:06 12.4 °C 2.8 °C 1034.4 hPa West 11.3 km/h 17.7 km/h 52 % 0 mm 149 W/m2
18:11 12.4 °C 2.8 °C 1034.4 hPa West 8 km/h 16.1 km/h 52 % 0 mm 137 W/m2
18:16 12.5 °C 2.9 °C 1034.4 hPa West 6.4 km/h 9.7 km/h 52 % 0 mm 128 W/m2
18:21 12.5 °C 3.4 °C 1034.4 hPa WNW 4.8 km/h 11.3 km/h 54 % 0 mm 120 W/m2
18:26 12.5 °C 3.4 °C 1034.4 hPa WNW 3.2 km/h 11.3 km/h 54 % 0 mm 105 W/m2
18:31 12.5 °C 3.2 °C 1034.4 hPa West 4.8 km/h 11.3 km/h 53 % 0 mm 100 W/m2
18:36 12.4 °C 3.3 °C 1034.4 hPa WSW 8 km/h 14.5 km/h 54 % 0 mm 86 W/m2
18:41 12.4 °C 3.6 °C 1034.4 hPa WSW 8 km/h 14.5 km/h 55 % 0 mm 74 W/m2
18:46 12.4 °C 3.6 °C 1034.4 hPa West 8 km/h 12.9 km/h 55 % 0 mm 67 W/m2
18:51 12.4 °C 3.8 °C 1034.4 hPa WNW 6.4 km/h 12.9 km/h 56 % 0 mm 54 W/m2
18:56 12.4 °C 4.1 °C 1034.4 hPa WNW 6.4 km/h 9.7 km/h 57 % 0 mm 70 W/m2
19:01 12.3 °C 3.8 °C 1034.4 hPa West 6.4 km/h 14.5 km/h 56 % 0 mm 67 W/m2
19:06 12.3 °C 3.5 °C 1034.4 hPa West 9.7 km/h 17.7 km/h 55 % 0 mm 47 W/m2
19:11 12.2 °C 3.7 °C 1034.4 hPa West 11.3 km/h 17.7 km/h 56 % 0 mm 40 W/m2
19:16 12.1 °C 3.6 °C 1034.4 hPa West 9.7 km/h 17.7 km/h 56 % 0 mm 30 W/m2
19:21 12.1 °C 3.8 °C 1034.4 hPa West 8 km/h 12.9 km/h 57 % 0 mm 25 W/m2
19:26 12 °C 4 °C 1034.4 hPa WNW 6.4 km/h 12.9 km/h 58 % 0 mm 26 W/m2
19:31 11.9 °C 3.7 °C 1034.4 hPa West 6.4 km/h 12.9 km/h 57 % 0 mm 21 W/m2
19:36 11.9 °C 3.9 °C 1034.4 hPa West 4.8 km/h 11.3 km/h 58 % 0 mm 19 W/m2
19:41 11.8 °C 3.8 °C 1034.4 hPa West 3.2 km/h 8 km/h 58 % 0 mm 16 W/m2
19:46 11.8 °C 4.1 °C 1034.4 hPa West 3.2 km/h 8 km/h 59 % 0 mm 14 W/m2
19:51 11.7 °C 3.9 °C 1034.4 hPa West 3.2 km/h 11.3 km/h 59 % 0 mm 12 W/m2
19:56 11.7 °C 3.9 °C 1034.4 hPa West 4.8 km/h 11.3 km/h 59 % 0 mm 11 W/m2
20:01 11.6 °C 4.1 °C 1034.4 hPa West 3.2 km/h 11.3 km/h 60 % 0 mm 7 W/m2
20:06 11.6 °C 4.1 °C 1034.4 hPa West 3.2 km/h 9.7 km/h 60 % 0 mm 0 W/m2
20:11 11.5 °C 4 °C 1034.8 hPa West 3.2 km/h 9.7 km/h 60 % 0 mm 0 W/m2
20:16 11.4 °C 4.2 °C 1034.8 hPa West 1.6 km/h 9.7 km/h 61 % 0 mm 0 W/m2
20:21 11.4 °C 4.4 °C 1034.8 hPa Calm   3.2 km/h 62 % 0 mm 0 W/m2
20:26 11.3 °C 4.3 °C 1034.8 hPa Calm   1.6 km/h 62 % 0 mm 0 W/m2
20:31 11.3 °C 4.3 °C 1034.8 hPa Calm   3.2 km/h 62 % 0 mm 0 W/m2
20:36 11.2 °C 4.2 °C 1034.8 hPa Calm   3.2 km/h 62 % 0 mm 0 W/m2
20:41 11.1 °C 4.3 °C 1034.8 hPa Calm   3.2 km/h 63 % 0 mm 0 W/m2
20:47 11.1 °C 4.3 °C 1034.8 hPa Calm     63 % 0 mm 0 W/m2
20:52 11 °C 4.4 °C 1034.8 hPa Calm     64 % 0 mm 0 W/m2
20:57 10.9 °C 4.6 °C 1034.8 hPa Calm     65 % 0 mm 0 W/m2
21:02 10.9 °C 4.6 °C 1034.8 hPa Calm     65 % 0 mm 0 W/m2
21:07 10.8 °C 4.5 °C 1034.8 hPa Calm     65 % 0 mm 0 W/m2
21:12 10.7 °C 4.6 °C 1034.8 hPa Calm     66 % 0 mm 0 W/m2
21:17 10.7 °C 4.6 °C 1034.8 hPa Calm     66 % 0 mm 0 W/m2
21:22 10.7 °C 4.8 °C 1034.8 hPa Calm     67 % 0 mm 0 W/m2
21:27 10.6 °C 4.5 °C 1034.8 hPa Calm     66 % 0 mm 0 W/m2
21:32 10.6 °C 4.5 °C 1034.8 hPa Calm     66 % 0 mm 0 W/m2
21:37 10.5 °C 4.6 °C 1034.8 hPa Calm     67 % 0 mm 0 W/m2
21:42 10.5 °C 4.6 °C 1034.8 hPa Calm   1.6 km/h 67 % 0 mm 0 W/m2
21:47 10.4 °C 4.6 °C 1034.8 hPa Calm   4.8 km/h 67 % 0 mm 0 W/m2
21:52 10.4 °C 4.7 °C 1035.1 hPa Calm   4.8 km/h 68 % 0 mm 0 W/m2
21:57 10.4 °C 4.7 °C 1035.1 hPa Calm   1.6 km/h 68 % 0 mm 0 W/m2
22:02 10.4 °C 4.7 °C 1035.1 hPa Calm   1.6 km/h 68 % 0 mm 0 W/m2
22:07 10.3 °C 4.7 °C 1034.8 hPa Calm     68 % 0 mm 0 W/m2
22:12 10.3 °C 4.7 °C 1035.1 hPa Calm     68 % 0 mm 0 W/m2
22:17 10.3 °C 4.8 °C 1035.1 hPa Calm     69 % 0 mm 0 W/m2
22:22 10.2 °C 4.8 °C 1035.1 hPa Calm     69 % 0 mm 0 W/m2
22:27 10.2 °C 4.8 °C 1035.1 hPa Calm     69 % 0 mm 0 W/m2
22:32 10.2 °C 4.8 °C 1035.1 hPa Calm     69 % 0 mm 0 W/m2
22:37 10.1 °C 4.9 °C 1034.8 hPa Calm     70 % 0 mm 0 W/m2
22:42 10.1 °C 5.1 °C 1034.8 hPa Calm     71 % 0 mm 0 W/m2
22:48 10 °C 5 °C 1034.8 hPa Calm     71 % 0 mm 0 W/m2
22:53 9.9 °C 5.1 °C 1035.1 hPa Calm     72 % 0 mm 0 W/m2
22:58 9.8 °C 5 °C 1035.1 hPa Calm     72 % 0 mm 0 W/m2
23:03 9.7 °C 4.9 °C 1035.1 hPa Calm     72 % 0 mm 0 W/m2
23:08 9.6 °C 5 °C 1035.1 hPa Calm     73 % 0 mm 0 W/m2
23:13 9.6 °C 5 °C 1035.1 hPa Calm     73 % 0 mm 0 W/m2
23:18 9.6 °C 5 °C 1035.1 hPa Calm     73 % 0 mm 0 W/m2
23:23 9.5 °C 5.1 °C 1035.1 hPa Calm     74 % 0 mm 0 W/m2
23:28 9.5 °C 5.1 °C 1034.8 hPa Calm     74 % 0 mm 0 W/m2
23:33 9.5 °C 5.1 °C 1034.8 hPa Calm     74 % 0 mm 0 W/m2
23:38 9.5 °C 5.1 °C 1034.8 hPa Calm     74 % 0 mm 0 W/m2
23:43 9.4 °C 5 °C 1034.8 hPa Calm     74 % 0 mm 0 W/m2
23:48 9.4 °C 5 °C 1034.8 hPa Calm     74 % 0 mm 0 W/m2
23:53 9.3 °C 5.1 °C 1034.8 hPa Calm   1.6 km/h 75 % 0 mm 0 W/m2
23:58 9.3 °C 5.3 °C 1034.8 hPa Calm   1.6 km/h 76 % 0 mm 0 W/m2
Delerius-Weather
Compliments of Weather Underground - 2.25 mb

Data updates at regular intervals.